Portland, North Dakota
Current Conditions -  °F | °C
As of 11:53 PM on Saturday 22 Nov 2014 (Local Time) from KGFK Reporting Station
Haze Haze  
Wind Chill: 25°   Ceiling: 600
Heat Index: 34°   Visibility: 6mi
Dew Point: 32°   Wind: 12mph
Humidity: 92%   Direction: 180°S
Pressure: 29.36"   Gusts: NA
Location:  47.5°N, 97.37°W
Report Text: KGFK 230553Z AUTO 18010KT 6SM BR OVC006 01/00 A2936 RMK AO2 SLP952 T00110000 10028 20011 400611083 55003 TSNO
Loading
Personal Weather Stations






























Interactive Weather Map New forecast layout! Learn more

10-Day Weather Forecast

Advertisements
Track Severe Weather on mobile